Time;durP1;ratioP1;P1;durP2;ratioP2;P2;SDS_P1;SDS_P2;PMS_P1;PMS_P2;Temp;Humidity;BMP_temperature;BMP_pressure;BME280_temperature;BME280_humidity;BME280_pressure;Samples;Min_cycle;Max_cycle;Signal;HPM_P1;HPM_P2
2023/01/13 00:01:18;;;;;;;1.73;0.40;;;9.10;73.80;;;;;;5006661;28;20036;-62
2023/01/13 00:03:44;;;;;;;2.00;0.50;;;9.10;73.50;;;;;;5013343;28;20587;-62
2023/01/13 00:06:26;;;;;;;0.90;0.40;;;9.10;73.60;;;;;;5017966;28;20120;-61
2023/01/13 00:08:53;;;;;;;2.58;0.50;;;9.10;73.30;;;;;;5014443;28;20029;-63
2023/01/13 00:11:19;;;;;;;2.17;0.50;;;9.10;73.40;;;;;;5019852;28;20081;-61
2023/01/13 00:13:45;;;;;;;1.25;0.40;;;9.20;73.50;;;;;;5014327;28;20038;-62
2023/01/13 00:16:16;;;;;;;1.85;0.60;;;9.10;73.30;;;;;;5007687;28;20044;-60
2023/01/13 00:18:42;;;;;;;2.17;0.63;;;9.10;73.30;;;;;;5004040;28;20041;-62
2023/01/13 00:21:15;;;;;;;2.05;0.55;;;9.10;73.30;;;;;;5009112;28;20030;-62
2023/01/13 00:23:42;;;;;;;1.15;0.47;;;9.10;73.20;;;;;;5007828;28;20489;-62
2023/01/13 00:26:11;;;;;;;1.50;0.60;;;9.10;73.20;;;;;;5005224;28;20064;-60
2023/01/13 00:28:37;;;;;;;2.55;0.60;;;9.10;73.20;;;;;;5009177;28;20048;-60
2023/01/13 00:31:07;;;;;;;1.33;0.50;;;9.10;73.00;;;;;;5005517;28;20033;-61
2023/01/13 00:33:34;;;;;;;2.05;0.50;;;9.10;72.80;;;;;;5009160;28;20278;-61
2023/01/13 00:36:01;;;;;;;1.55;0.43;;;9.20;73.00;;;;;;5005437;28;20048;-61
2023/01/13 00:38:28;;;;;;;1.05;0.45;;;9.10;73.00;;;;;;5007261;28;20140;-61
2023/01/13 00:40:59;;;;;;;0.90;0.40;;;9.10;72.90;;;;;;5004271;28;20030;-59
2023/01/13 00:43:26;;;;;;;1.90;0.45;;;9.10;72.70;;;;;;5007157;28;20056;-61
2023/01/13 00:45:52;;;;;;;1.80;0.50;;;9.10;72.80;;;;;;5006256;28;20053;-62
2023/01/13 00:48:19;;;;;;;1.35;0.45;;;9.10;72.80;;;;;;5006344;28;20042;-61
2023/01/13 00:50:45;;;;;;;2.00;0.57;;;9.10;72.70;;;;;;5005114;28;20041;-61
2023/01/13 00:53:12;;;;;;;1.55;0.45;;;9.10;72.70;;;;;;5005102;28;20041;-60
2023/01/13 00:55:38;;;;;;;2.63;0.60;;;9.10;72.70;;;;;;5004452;28;20273;-60
2023/01/13 00:58:04;;;;;;;0.85;0.40;;;9.10;72.60;;;;;;5008501;28;20249;-61
2023/01/13 01:00:31;;;;;;;1.20;0.50;;;9.10;72.50;;;;;;5000196;28;20079;-61
2023/01/13 01:02:56;;;;;;;3.17;0.70;;;9.20;72.50;;;;;;5008658;28;20048;-60
2023/01/13 01:05:22;;;;;;;3.25;0.60;;;9.10;72.40;;;;;;5012930;28;20026;-61
2023/01/13 01:07:48;;;;;;;5.25;0.75;;;9.20;72.40;;;;;;5011529;28;20034;-59
2023/01/13 01:10:13;;;;;;;1.83;0.68;;;9.20;72.20;;;;;;5013231;28;20034;-61
2023/01/13 01:12:39;;;;;;;0.90;0.50;;;9.20;72.10;;;;;;5010573;28;20037;-60
2023/01/13 01:15:08;;;;;;;1.58;0.50;;;9.20;72.30;;;;;;5008629;28;20406;-62
2023/01/13 01:17:33;;;;;;;1.33;0.50;;;9.20;72.20;;;;;;5008824;28;20040;-60
2023/01/13 01:19:59;;;;;;;1.45;0.30;;;9.30;72.00;;;;;;5005066;28;20081;-61
2023/01/13 01:22:24;;;;;;;1.42;0.45;;;9.30;72.10;;;;;;5006550;28;20334;-60
2023/01/13 01:24:50;;;;;;;1.40;0.47;;;9.30;72.10;;;;;;5004758;28;20050;-60
2023/01/13 01:27:15;;;;;;;2.35;0.50;;;9.30;72.00;;;;;;5003077;28;20396;-60
2023/01/13 01:29:41;;;;;;;1.15;0.60;;;9.30;71.80;;;;;;5004403;28;20045;-60
2023/01/13 01:32:06;;;;;;;0.88;0.38;;;9.30;71.60;;;;;;5008130;28;20053;-62
2023/01/13 01:34:32;;;;;;;0.52;0.40;;;9.30;71.40;;;;;;5007911;28;20536;-62
2023/01/13 01:36:58;;;;;;;4.35;0.68;;;9.40;71.40;;;;;;5008063;28;20203;-62
2023/01/13 01:39:23;;;;;;;1.67;0.50;;;9.30;71.10;;;;;;5008079;28;20464;-63
2023/01/13 01:44:54;;;;;;;1.55;0.50;;;9.30;71.00;;;;;;5007167;28;20526;-61
2023/01/13 01:47:21;;;;;;;2.05;0.43;;;9.30;70.50;;;;;;5004125;28;20136;-62
2023/01/13 01:49:48;;;;;;;0.63;0.32;;;9.40;70.90;;;;;;5003121;28;20318;-62
2023/01/13 01:52:29;;;;;;;1.60;0.50;;;9.40;70.70;;;;;;5007104;28;20132;-61
2023/01/13 01:55:07;;;;;;;2.28;0.50;;;9.30;70.50;;;;;;5006443;28;20668;-60
2023/01/13 01:57:53;;;;;;;3.05;0.50;;;9.30;70.20;;;;;;5005434;28;20040;-62
2023/01/13 02:00:19;;;;;;;1.10;0.50;;;9.30;69.90;;;;;;5007653;28;20026;-62
2023/01/13 02:02:47;;;;;;;2.17;0.43;;;9.30;70.20;;;;;;5008156;28;20124;-63
2023/01/13 02:05:14;;;;;;;2.40;0.47;;;9.30;70.00;;;;;;5016901;28;20037;-62
2023/01/13 02:07:41;;;;;;;2.00;0.50;;;9.30;70.30;;;;;;5014620;28;20045;-62
2023/01/13 02:10:10;;;;;;;1.40;0.47;;;9.30;69.70;;;;;;5015924;28;20498;-62
2023/01/13 02:12:37;;;;;;;0.93;0.50;;;9.40;69.80;;;;;;5014416;28;20030;-62
2023/01/13 02:15:12;;;;;;;1.40;0.52;;;9.40;69.50;;;;;;5013804;28;20042;-62
2023/01/13 02:17:47;;;;;;;1.63;0.47;;;9.40;69.20;;;;;;5010409;28;20401;-62
2023/01/13 02:20:49;;;;;;;1.95;0.52;;;9.40;69.10;;;;;;5006512;28;20057;-62
2023/01/13 02:26:40;;;;;;;1.10;0.45;;;9.40;68.80;;;;;;5013050;28;20045;-62
2023/01/13 02:32:42;;;;;;;1.23;0.50;;;9.40;68.90;;;;;;5007683;28;20085;-62
2023/01/13 02:35:17;;;;;;;0.70;0.40;;;9.40;68.50;;;;;;5015024;28;20045;-60
2023/01/13 02:37:43;;;;;;;1.48;0.50;;;9.40;68.90;;;;;;5011655;28;20528;-63
2023/01/13 02:40:15;;;;;;;1.02;0.50;;;9.40;68.90;;;;;;5012343;28;20128;-62
2023/01/13 02:46:07;;;;;;;2.27;0.50;;;9.40;68.60;;;;;;5009218;28;20036;-61
2023/01/13 02:48:35;;;;;;;0.75;0.30;;;9.40;68.60;;;;;;5007291;28;20037;-61
2023/01/13 02:51:09;;;;;;;1.05;0.40;;;9.40;68.60;;;;;;5008083;28;20041;-62
2023/01/13 02:54:01;;;;;;;2.03;0.40;;;9.40;68.50;;;;;;5008709;28;20034;-62
2023/01/13 02:56:29;;;;;;;1.10;0.30;;;9.40;68.60;;;;;;5009557;28;20126;-62
2023/01/13 02:58:57;;;;;;;0.75;0.30;;;9.40;68.80;;;;;;5009349;28;20038;-59
2023/01/13 03:01:23;;;;;;;1.75;0.60;;;9.40;68.60;;;;;;5012387;28;20501;-61
2023/01/13 03:03:51;;;;;;;0.75;0.45;;;9.40;69.10;;;;;;5012935;28;20449;-60
2023/01/13 03:06:29;;;;;;;1.88;0.35;;;9.40;68.90;;;;;;5014840;28;20049;-61
2023/01/13 03:08:55;;;;;;;2.08;0.50;;;9.40;68.50;;;;;;5008427;28;20061;-61
2023/01/13 03:11:21;;;;;;;2.65;0.50;;;9.60;69.00;;;;;;5010454;28;20117;-58
2023/01/13 03:14:00;;;;;;;1.67;0.50;;;9.40;68.70;;;;;;5008001;28;20040;-60
2023/01/13 03:16:45;;;;;;;1.75;0.50;;;9.40;68.40;;;;;;5011378;28;20042;-60
2023/01/13 03:19:24;;;;;;;1.30;0.47;;;9.40;68.60;;;;;;5012562;28;20048;-60
2023/01/13 03:22:13;;;;;;;1.67;0.50;;;9.40;68.40;;;;;;5017616;28;20037;-60
2023/01/13 03:24:42;;;;;;;1.27;0.43;;;9.40;68.60;;;;;;5018463;28;20556;-62
2023/01/13 03:27:14;;;;;;;2.50;0.52;;;9.40;68.70;;;;;;5017776;28;20470;-60
2023/01/13 03:29:44;;;;;;;1.40;0.52;;;9.40;68.80;;;;;;5010954;28;20143;-59
2023/01/13 03:32:19;;;;;;;1.70;0.50;;;9.40;69.00;;;;;;5003198;28;20045;-62
2023/01/13 03:34:54;;;;;;;1.17;0.43;;;9.50;68.80;;;;;;5009945;28;20065;-62
2023/01/13 03:37:25;;;;;;;2.10;0.50;;;9.50;69.00;;;;;;5006489;28;20136;-62
2023/01/13 03:39:56;;;;;;;1.13;0.43;;;9.50;69.00;;;;;;5012026;28;20457;-63
2023/01/13 03:42:24;;;;;;;0.63;0.40;;;9.50;68.70;;;;;;5010428;28;20037;-63
2023/01/13 03:45:01;;;;;;;0.52;0.30;;;9.50;68.70;;;;;;5015425;28;20417;-62
2023/01/13 03:47:52;;;;;;;1.38;0.40;;;9.50;68.50;;;;;;5013906;28;20061;-62
2023/01/13 03:50:43;;;;;;;0.98;0.40;;;9.50;68.50;;;;;;5010585;28;20416;-62
2023/01/13 03:53:16;;;;;;;1.42;0.40;;;9.50;68.30;;;;;;5008516;28;20076;-62
2023/01/13 03:55:52;;;;;;;1.40;0.43;;;9.50;68.70;;;;;;5008676;28;20099;-63
2023/01/13 03:58:20;;;;;;;1.27;0.50;;;9.50;68.60;;;;;;5009886;28;20037;-62
2023/01/13 04:01:07;;;;;;;0.63;0.50;;;9.50;68.80;;;;;;5005428;28;20080;-62
2023/01/13 04:03:40;;;;;;;0.88;0.40;;;9.50;68.60;;;;;;5008080;28;20505;-62
2023/01/13 04:06:21;;;;;;;1.52;0.40;;;9.50;68.80;;;;;;5007635;28;20394;-62
2023/01/13 04:09:02;;;;;;;1.65;0.50;;;9.60;68.80;;;;;;5006850;28;20025;-62
2023/01/13 04:11:35;;;;;;;1.65;0.38;;;9.50;68.60;;;;;;5007072;28;20048;-62
2023/01/13 04:14:02;;;;;;;1.20;0.50;;;9.50;68.80;;;;;;5009306;28;20029;-62
2023/01/13 04:16:28;;;;;;;0.90;0.57;;;9.50;68.90;;;;;;5003651;28;20038;-63
2023/01/13 04:18:54;;;;;;;1.73;0.57;;;9.50;69.00;;;;;;5007936;28;20049;-62
2023/01/13 04:21:19;;;;;;;1.42;0.47;;;9.50;69.00;;;;;;5011094;28;20515;-60
2023/01/13 04:23:45;;;;;;;0.57;0.40;;;9.50;69.20;;;;;;5006180;28;20034;-60
2023/01/13 04:26:11;;;;;;;1.27;0.45;;;9.50;69.30;;;;;;5003365;28;20066;-62
2023/01/13 04:28:36;;;;;;;2.05;0.50;;;9.50;69.30;;;;;;5007009;28;20038;-61
2023/01/13 04:31:02;;;;;;;1.15;0.50;;;9.50;69.30;;;;;;5003840;28;20054;-60
2023/01/13 04:33:27;;;;;;;1.08;0.40;;;9.50;69.50;;;;;;5006899;28;20040;-62
2023/01/13 04:35:54;;;;;;;2.30;0.75;;;9.50;69.60;;;;;;5004227;28;20072;-59
2023/01/13 04:38:20;;;;;;;0.88;0.50;;;9.50;69.70;;;;;;5003489;28;20061;-59
2023/01/13 04:40:46;;;;;;;0.77;0.40;;;9.50;69.70;;;;;;5002265;28;20700;-60
2023/01/13 04:43:12;;;;;;;0.63;0.50;;;9.60;69.90;;;;;;5010336;28;20041;-61
2023/01/13 04:45:38;;;;;;;1.27;0.30;;;9.50;69.90;;;;;;5004671;28;20064;-61
2023/01/13 04:48:03;;;;;;;1.67;0.38;;;9.60;70.10;;;;;;5005393;28;20132;-61
2023/01/13 04:50:29;;;;;;;2.72;0.50;;;9.60;70.20;;;;;;5002988;28;20528;-59
2023/01/13 04:52:55;;;;;;;0.68;0.50;;;9.60;70.20;;;;;;5005354;28;20041;-62
2023/01/13 04:55:22;;;;;;;1.60;0.40;;;9.60;70.40;;;;;;5005106;28;20536;-62
2023/01/13 04:57:48;;;;;;;0.75;0.55;;;9.60;70.40;;;;;;5008661;28;20049;-61
2023/01/13 05:00:16;;;;;;;0.65;0.50;;;9.60;70.50;;;;;;5006138;28;20484;-61
2023/01/13 05:02:41;;;;;;;0.90;0.40;;;9.60;70.60;;;;;;5004751;28;20124;-60
2023/01/13 05:05:08;;;;;;;1.00;0.40;;;9.70;70.70;;;;;;5009270;28;20132;-61
2023/01/13 05:07:34;;;;;;;1.58;0.50;;;9.70;70.90;;;;;;5005133;28;20036;-61
2023/01/13 05:09:59;;;;;;;1.25;0.40;;;9.70;70.90;;;;;;5008467;28;20037;-61
2023/01/13 05:17:56;;;;;;;2.97;1.13;;;9.80;71.20;;;;;;5012882;28;20420;-61
2023/01/13 05:20:22;;;;;;;2.03;1.00;;;9.80;71.20;;;;;;5011549;28;20034;-60
2023/01/13 05:25:34;;;;;;;2.03;0.47;;;9.80;71.20;;;;;;5007223;28;20055;-62
2023/01/13 05:27:59;;;;;;;1.20;0.50;;;9.80;71.30;;;;;;5006855;28;20049;-62
2023/01/13 05:30:31;;;;;;;0.47;0.40;;;9.80;71.40;;;;;;5008270;28;20037;-63
2023/01/13 05:32:57;;;;;;;2.17;0.60;;;9.80;71.60;;;;;;5008772;28;20045;-61
2023/01/13 05:35:23;;;;;;;3.63;0.50;;;9.80;71.80;;;;;;5012385;28;20516;-62
2023/01/13 05:37:48;;;;;;;1.05;0.50;;;9.80;72.10;;;;;;5010323;28;20569;-62
2023/01/13 05:43:20;;;;;;;1.27;0.43;;;9.80;72.60;;;;;;5015106;28;20168;-62
2023/01/13 05:46:11;;;;;;;1.88;0.35;;;9.80;72.60;;;;;;5015077;28;20134;-62
2023/01/13 05:48:39;;;;;;;1.17;0.50;;;9.80;73.20;;;;;;5013999;28;20042;-62
2023/01/13 05:51:07;;;;;;;0.60;0.40;;;9.80;73.00;;;;;;5013349;28;20040;-62
2023/01/13 05:53:33;;;;;;;0.43;0.30;;;9.80;73.20;;;;;;5017227;28;20038;-61
2023/01/13 05:55:59;;;;;;;0.70;0.30;;;9.80;73.20;;;;;;5015769;28;20115;-62
2023/01/13 05:58:26;;;;;;;2.63;0.50;;;9.80;73.30;;;;;;5015557;28;20042;-62
2023/01/13 06:00:52;;;;;;;0.75;0.50;;;9.80;73.50;;;;;;5014497;28;20030;-62
2023/01/13 06:03:19;;;;;;;3.05;0.47;;;9.80;73.70;;;;;;5014402;28;20046;-61
2023/01/13 06:05:45;;;;;;;0.98;0.40;;;9.80;73.70;;;;;;5016263;28;20030;-61
2023/01/13 06:08:11;;;;;;;1.75;0.50;;;9.80;74.10;;;;;;5014160;28;20068;-60
2023/01/13 06:10:37;;;;;;;1.13;0.70;;;9.80;74.10;;;;;;5017911;28;20057;-62
2023/01/13 06:13:03;;;;;;;1.95;0.50;;;9.80;74.20;;;;;;5012980;28;20034;-62
2023/01/13 06:15:29;;;;;;;1.60;0.68;;;9.80;74.20;;;;;;5014770;28;20509;-62
2023/01/13 06:17:56;;;;;;;4.07;1.92;;;9.80;74.20;;;;;;5016322;28;20456;-61
2023/01/13 06:20:22;;;;;;;1.35;0.65;;;9.80;74.40;;;;;;5015428;28;20062;-62
2023/01/13 06:22:50;;;;;;;0.63;0.38;;;9.80;75.10;;;;;;5014736;28;20424;-61
2023/01/13 06:25:42;;;;;;;1.45;0.57;;;9.80;74.60;;;;;;5013580;28;20030;-61
2023/01/13 06:28:08;;;;;;;0.47;0.30;;;9.80;74.70;;;;;;5011449;28;20068;-62
2023/01/13 06:30:47;;;;;;;1.20;0.50;;;9.80;74.70;;;;;;5015034;28;20529;-62
2023/01/13 06:33:16;;;;;;;0.40;0.40;;;9.70;75.00;;;;;;5014607;28;20041;-62
2023/01/13 06:35:46;;;;;;;0.93;0.50;;;9.80;74.80;;;;;;5013412;28;20042;-61
2023/01/13 06:38:15;;;;;;;2.10;0.57;;;9.90;74.90;;;;;;5014015;28;20041;-61
2023/01/13 06:40:41;;;;;;;1.23;0.22;;;9.90;74.90;;;;;;5014102;28;20041;-62
2023/01/13 06:43:13;;;;;;;0.80;0.50;;;9.90;74.90;;;;;;5011903;28;20038;-62
2023/01/13 06:45:39;;;;;;;2.75;0.57;;;9.90;74.80;;;;;;5014212;28;20565;-62
2023/01/13 06:48:06;;;;;;;1.20;0.80;;;9.90;74.70;;;;;;5012477;28;20061;-61
2023/01/13 06:50:31;;;;;;;1.88;1.00;;;9.90;74.70;;;;;;5013947;28;20478;-61
2023/01/13 06:52:57;;;;;;;1.65;1.20;;;9.80;74.70;;;;;;5014396;28;20170;-60
2023/01/13 06:55:23;;;;;;;0.85;0.55;;;9.90;74.70;;;;;;5009924;28;20042;-61
2023/01/13 06:57:58;;;;;;;1.63;0.40;;;9.90;74.70;;;;;;5014921;28;20160;-62
2023/01/13 07:00:24;;;;;;;;;;;10.00;74.80;;;;;;5013967;28;20133;-62
2023/01/13 07:02:50;;;;;;;0.95;0.40;;;10.00;74.90;;;;;;5012257;28;19917;-63
2023/01/13 07:05:17;;;;;;;1.00;0.30;;;10.00;74.60;;;;;;5012492;28;20056;-63
2023/01/13 07:07:42;;;;;;;1.40;0.90;;;10.00;74.60;;;;;;5012709;28;20030;-62
2023/01/13 07:10:11;;;;;;;1.48;0.73;;;9.90;74.60;;;;;;5011383;28;20034;-62
2023/01/13 07:15:25;;;;;;;2.20;0.70;;;9.90;74.60;;;;;;5005347;28;20113;-62
2023/01/13 07:17:52;;;;;;;1.48;0.60;;;10.00;74.70;;;;;;5015239;28;20045;-60
2023/01/13 07:20:18;;;;;;;1.10;0.50;;;9.90;74.70;;;;;;5010157;28;20049;-61
2023/01/13 07:22:44;;;;;;;0.80;0.43;;;9.90;74.70;;;;;;5010781;28;20045;-62
2023/01/13 07:25:10;;;;;;;1.38;0.38;;;9.90;74.80;;;;;;5008963;28;20041;-62
2023/01/13 07:27:35;;;;;;;1.15;0.52;;;9.90;74.90;;;;;;5010280;28;20073;-62
2023/01/13 07:30:02;;;;;;;0.80;0.40;;;9.90;74.90;;;;;;5011640;28;20038;-63
2023/01/13 07:32:31;;;;;;;1.20;0.40;;;10.00;75.00;;;;;;5010754;28;20038;-63
2023/01/13 07:35:03;;;;;;;1.33;0.70;;;9.90;75.10;;;;;;5009108;28;20512;-62
2023/01/13 07:37:29;;;;;;;1.30;0.32;;;10.00;75.10;;;;;;5011439;28;20026;-63
2023/01/13 07:39:54;;;;;;;2.22;0.52;;;10.00;75.10;;;;;;5010124;28;20587;-63
2023/01/13 07:45:05;;;;;;;0.90;0.50;;;10.00;75.30;;;;;;5008708;28;20550;-61
2023/01/13 07:47:30;;;;;;;1.85;0.68;;;10.00;75.30;;;;;;5009600;28;20809;-63
2023/01/13 07:49:56;;;;;;;1.00;0.60;;;10.00;75.30;;;;;;5010426;28;20038;-61
2023/01/13 07:52:21;;;;;;;1.40;0.50;;;10.00;75.30;;;;;;5010768;28;20037;-62
2023/01/13 07:54:48;;;;;;;1.63;0.77;;;10.00;75.30;;;;;;5010246;28;20393;-63
2023/01/13 07:57:14;;;;;;;0.95;0.40;;;10.00;75.40;;;;;;5010163;28;20034;-62
2023/01/13 07:59:39;;;;;;;1.25;0.93;;;10.00;75.40;;;;;;5009958;28;20555;-62
2023/01/13 08:02:05;;;;;;;1.75;0.93;;;10.00;75.40;;;;;;5007432;28;20033;-61
2023/01/13 08:04:30;;;;;;;4.57;2.45;;;10.00;75.40;;;;;;5010759;28;20133;-62
2023/01/13 08:06:56;;;;;;;2.03;1.65;;;10.00;75.30;;;;;;5008298;28;20408;-61
2023/01/13 08:09:22;;;;;;;4.15;2.17;;;10.10;75.40;;;;;;5008887;28;20037;-60
2023/01/13 08:13:16;;;;;;;5.53;2.75;;;10.10;75.50;;;;;;5007311;28;20088;-59
2023/01/13 08:14:33;;;;;;;4.47;1.77;;;10.10;75.50;;;;;;5009338;28;20081;-60
2023/01/13 08:16:58;;;;;;;2.90;1.38;;;10.10;75.50;;;;;;5011568;28;20057;-62
2023/01/13 08:19:24;;;;;;;1.75;0.60;;;10.10;75.60;;;;;;5010031;28;20096;-60
2023/01/13 08:21:49;;;;;;;0.55;0.30;;;10.10;75.60;;;;;;5008791;28;21363;-60
2023/01/13 08:24:15;;;;;;;1.08;0.22;;;10.10;75.60;;;;;;5008469;28;20037;-60
2023/01/13 08:26:40;;;;;;;0.63;0.20;;;10.10;75.60;;;;;;5010607;28;20275;-60
2023/01/13 08:29:06;;;;;;;1.23;0.30;;;10.10;75.60;;;;;;5010237;28;20057;-60
2023/01/13 08:31:31;;;;;;;0.40;0.28;;;10.20;75.70;;;;;;5009376;28;20041;-59
2023/01/13 08:33:57;;;;;;;1.10;0.40;;;10.20;75.70;;;;;;5009894;28;20045;-62
2023/01/13 08:36:24;;;;;;;0.63;0.40;;;10.20;75.70;;;;;;5012522;28;20029;-59
2023/01/13 08:38:49;;;;;;;0.75;0.20;;;10.20;75.60;;;;;;5008909;28;21081;-61
2023/01/13 08:41:53;;;;;;;1.05;0.20;;;10.20;75.50;;;;;;5011469;28;20109;-60
2023/01/13 08:44:05;;;;;;;0.65;0.20;;;10.20;75.50;;;;;;5010540;28;20500;-61
2023/01/13 08:46:31;;;;;;;0.70;0.20;;;10.20;75.50;;;;;;5010053;28;20065;-62
2023/01/13 08:48:56;;;;;;;0.88;0.30;;;10.20;75.40;;;;;;5009360;28;20129;-60
2023/01/13 08:51:22;;;;;;;0.52;0.38;;;10.30;75.50;;;;;;5009660;28;20103;-62
2023/01/13 08:53:48;;;;;;;0.85;0.40;;;10.30;75.40;;;;;;5011932;28;20484;-62
2023/01/13 08:56:13;;;;;;;1.00;0.22;;;10.30;75.40;;;;;;5009371;28;20049;-62
2023/01/13 08:58:39;;;;;;;0.70;0.30;;;10.40;75.50;;;;;;5008945;28;20314;-62
2023/01/13 09:01:07;;;;;;;0.57;0.20;;;10.40;75.40;;;;;;5008443;28;20030;-60
2023/01/13 09:03:32;;;;;;;1.83;0.40;;;10.40;75.40;;;;;;5006130;28;20039;-61
2023/01/13 09:05:58;;;;;;;2.13;0.40;;;10.50;75.40;;;;;;5011391;28;20033;-60
2023/01/13 09:08:24;;;;;;;1.25;0.30;;;10.50;75.30;;;;;;5008705;28;20053;-60
2023/01/13 09:10:49;;;;;;;0.88;0.38;;;10.60;75.30;;;;;;5011695;28;20088;-59
2023/01/13 09:13:15;;;;;;;1.92;0.40;;;10.60;75.30;;;;;;5008002;28;20536;-61
2023/01/13 09:15:44;;;;;;;1.35;0.20;;;10.60;75.10;;;;;;5012336;28;20033;-62
2023/01/13 09:18:10;;;;;;;0.60;0.20;;;10.60;75.20;;;;;;5009181;28;20045;-61
2023/01/13 09:20:36;;;;;;;1.15;0.30;;;10.70;75.20;;;;;;5009295;28;20456;-61
2023/01/13 09:23:02;;;;;;;1.33;0.30;;;10.70;75.30;;;;;;5007303;28;20037;-62
2023/01/13 09:25:28;;;;;;;0.73;0.47;;;10.70;75.10;;;;;;5009427;28;20038;-61
2023/01/13 09:27:54;;;;;;;0.95;0.35;;;10.80;75.10;;;;;;5008250;28;20759;-62
2023/01/13 09:30:19;;;;;;;0.50;0.20;;;10.80;75.00;;;;;;5007996;28;20053;-61
2023/01/13 09:32:45;;;;;;;0.73;0.57;;;10.90;74.90;;;;;;5010677;28;20044;-60
2023/01/13 09:35:11;;;;;;;0.60;0.30;;;10.90;74.80;;;;;;5013140;28;20038;-62
2023/01/13 09:37:39;;;;;;;1.05;0.30;;;11.00;74.60;;;;;;5009194;28;20507;-61
2023/01/13 09:40:11;;;;;;;0.60;0.40;;;11.10;74.60;;;;;;5013298;28;20041;-61
2023/01/13 09:45:50;;;;;;;2.65;0.68;;;11.10;74.20;;;;;;5009770;28;20411;-60
2023/01/13 09:48:19;;;;;;;1.10;0.50;;;11.10;74.30;;;;;;5009692;28;20100;-62
2023/01/13 09:51:01;;;;;;;0.82;0.50;;;11.20;74.40;;;;;;5010191;28;20066;-62
2023/01/13 09:53:32;;;;;;;2.13;0.90;;;11.20;74.20;;;;;;5011053;28;20042;-61
2023/01/13 09:55:58;;;;;;;1.20;0.52;;;11.30;74.40;;;;;;5007242;28;20177;-61
2023/01/13 09:58:24;;;;;;;0.50;0.40;;;11.30;74.70;;;;;;5011331;28;20049;-60
2023/01/13 10:01:17;;;;;;;0.30;0.30;;;11.30;74.80;;;;;;5011617;28;20041;-59
2023/01/13 10:03:43;;;;;;;0.43;0.30;;;11.40;74.90;;;;;;5011176;28;20600;-62
2023/01/13 10:06:16;;;;;;;0.22;0.15;;;11.40;74.80;;;;;;5009984;28;20038;-60
2023/01/13 10:08:44;;;;;;;0.55;0.20;;;11.40;74.60;;;;;;5006869;28;20148;-61
2023/01/13 10:14:25;;;;;;;0.30;0.30;;;11.50;74.40;;;;;;5011882;28;20043;-60
2023/01/13 10:17:02;;;;;;;1.30;0.80;;;11.50;74.40;;;;;;5008641;28;20698;-59
2023/01/13 10:19:42;;;;;;;1.85;1.20;;;11.50;74.20;;;;;;5011272;28;20073;-60
2023/01/13 10:22:30;;;;;;;0.85;0.85;;;11.60;74.10;;;;;;5010536;28;20081;-61
2023/01/13 10:25:20;;;;;;;0.43;0.40;;;11.50;74.00;;;;;;5013077;28;20065;-61
2023/01/13 10:27:49;;;;;;;0.50;0.30;;;11.60;73.80;;;;;;5014453;28;20234;-60
2023/01/13 10:30:31;;;;;;;0.30;0.30;;;11.60;73.70;;;;;;5012200;28;20033;-62
2023/01/13 10:33:08;;;;;;;1.15;0.25;;;11.60;73.70;;;;;;5014133;28;20038;-62
2023/01/13 10:35:49;;;;;;;0.43;0.20;;;11.50;73.70;;;;;;5012655;28;20045;-58
2023/01/13 10:38:18;;;;;;;0.60;0.40;;;11.50;73.50;;;;;;5010653;28;20517;-60
2023/01/13 10:41:12;;;;;;;0.38;0.17;;;11.50;73.50;;;;;;5012892;28;20041;-61
2023/01/13 10:43:38;;;;;;;0.57;0.20;;;11.50;73.30;;;;;;5009667;28;20040;-61
2023/01/13 10:46:14;;;;;;;0.57;0.30;;;11.50;73.30;;;;;;5012659;28;20030;-61
2023/01/13 10:48:54;;;;;;;0.30;0.20;;;11.50;73.30;;;;;;5011112;28;20049;-61
2023/01/13 10:51:27;;;;;;;0.77;0.20;;;11.50;73.50;;;;;;5009466;28;20041;-60
2023/01/13 10:54:16;;;;;;;0.60;0.20;;;11.50;73.80;;;;;;5013127;28;20038;-61
2023/01/13 10:56:43;;;;;;;0.43;0.22;;;11.50;73.90;;;;;;5013440;28;20033;-61
2023/01/13 10:59:21;;;;;;;1.17;0.30;;;11.40;73.70;;;;;;5010366;28;20077;-60
2023/01/13 11:02:16;;;;;;;0.77;0.30;;;11.40;73.80;;;;;;5011983;28;20042;-59
2023/01/13 11:04:56;;;;;;;0.50;0.20;;;11.40;73.70;;;;;;5011249;28;20521;-62
2023/01/13 11:07:39;;;;;;;1.15;0.17;;;11.40;73.80;;;;;;5011790;28;20115;-63
2023/01/13 11:10:30;;;;;;;0.20;0.10;;;11.40;73.80;;;;;;5011557;28;20042;-62
2023/01/13 11:13:12;;;;;;;0.32;0.20;;;11.40;73.90;;;;;;5007402;28;20041;-61
2023/01/13 11:15:43;;;;;;;1.33;0.17;;;11.40;74.00;;;;;;5011067;28;20347;-61
2023/01/13 11:18:18;;;;;;;0.20;0.20;;;11.40;74.00;;;;;;5012742;28;20124;-60
2023/01/13 11:20:47;;;;;;;1.02;0.30;;;11.50;74.00;;;;;;5012685;28;20694;-61
2023/01/13 11:23:16;;;;;;;1.35;0.30;;;11.50;74.00;;;;;;5014871;28;21431;-61
2023/01/13 11:25:45;;;;;;;0.60;0.32;;;11.50;73.90;;;;;;5014076;28;20030;-61
2023/01/13 11:28:32;;;;;;;0.57;0.43;;;11.50;73.70;;;;;;5012274;28;20136;-61
2023/01/13 11:31:30;;;;;;;0.50;0.20;;;11.50;74.60;;;;;;5011732;28;20120;-61
2023/01/13 11:34:03;;;;;;;0.38;0.30;;;11.50;73.80;;;;;;5012469;28;20038;-62
2023/01/13 11:36:39;;;;;;;0.88;0.22;;;11.50;73.70;;;;;;5009411;28;20041;-60
2023/01/13 11:39:22;;;;;;;1.02;0.30;;;11.50;73.90;;;;;;5013267;28;20638;-60
2023/01/13 11:42:20;;;;;;;0.43;0.13;;;11.50;74.90;;;;;;5013551;28;20544;-61
2023/01/13 11:45:15;;;;;;;0.25;0.20;;;11.50;74.10;;;;;;5008955;28;20535;-62
2023/01/13 11:47:45;;;;;;;0.65;0.20;;;11.50;74.20;;;;;;5011307;28;20056;-61
2023/01/13 11:50:42;;;;;;;0.70;0.20;;;11.60;74.30;;;;;;5011800;28;20093;-61
2023/01/13 11:53:25;;;;;;;0.30;0.10;;;11.70;74.30;;;;;;5014260;28;20118;-61
2023/01/13 11:56:10;;;;;;;1.27;0.20;;;11.70;74.30;;;;;;5009691;28;20421;-61
2023/01/13 11:58:57;;;;;;;0.60;0.15;;;11.80;74.30;;;;;;5010330;28;20091;-61
2023/01/13 12:01:41;;;;;;;0.40;0.10;;;11.80;74.20;;;;;;5011133;28;20413;-61
2023/01/13 12:04:28;;;;;;;0.15;0.15;;;11.80;74.00;;;;;;5009519;28;20390;-61
2023/01/13 12:07:06;;;;;;;0.43;0.20;;;11.90;73.90;;;;;;5008297;28;20068;-62
2023/01/13 12:09:46;;;;;;;0.95;0.20;;;11.90;73.60;;;;;;5009541;28;20038;-62
2023/01/13 12:12:26;;;;;;;1.65;0.30;;;11.90;73.60;;;;;;5008320;28;20030;-59
2023/01/13 12:15:16;;;;;;;0.20;0.15;;;12.00;73.70;;;;;;5009656;28;20033;-62
2023/01/13 12:17:48;;;;;;;0.17;0.10;;;12.00;73.30;;;;;;5011597;28;20030;-61
2023/01/13 12:20:20;;;;;;;0.47;0.15;;;12.00;73.40;;;;;;5007913;28;20025;-61
2023/01/13 12:22:48;;;;;;;0.20;0.10;;;12.00;73.10;;;;;;5008998;28;20038;-60
2023/01/13 12:25:20;;;;;;;0.13;0.10;;;12.10;73.00;;;;;;5011355;28;20057;-61
2023/01/13 12:27:52;;;;;;;0.13;0.10;;;12.00;73.00;;;;;;5010519;28;20033;-59
2023/01/13 12:30:36;;;;;;;0.98;0.20;;;12.00;73.10;;;;;;5011372;28;20041;-61
2023/01/13 12:33:22;;;;;;;0.35;0.20;;;12.00;73.00;;;;;;5011401;28;20049;-61
2023/01/13 12:35:57;;;;;;;0.52;0.20;;;12.00;73.20;;;;;;5010276;28;20040;-60
2023/01/13 12:38:25;;;;;;;0.40;0.13;;;12.00;72.60;;;;;;5009054;28;20041;-62
2023/01/13 12:41:22;;;;;;;0.50;0.20;;;12.00;72.60;;;;;;5009945;28;20040;-62
2023/01/13 12:46:41;;;;;;;0.45;0.17;;;12.00;71.60;;;;;;5008276;28;20131;-61
2023/01/13 12:49:18;;;;;;;1.45;0.00;;;12.00;71.40;;;;;;5010712;28;20030;-62
2023/01/13 12:51:55;;;;;;;0.40;0.10;;;12.00;65.90;;;;;;5014493;28;21297;-61
2023/01/13 12:54:36;;;;;;;0.43;0.00;;;11.70;64.80;;;;;;5015614;28;20041;-61
2023/01/13 12:57:19;;;;;;;2.55;0.20;;;11.30;65.40;;;;;;5013745;28;20088;-61
2023/01/13 13:00:04;;;;;;;0.70;0.13;;;10.80;67.30;;;;;;5011998;28;20437;-62
2023/01/13 13:02:38;;;;;;;1.38;0.10;;;10.20;69.00;;;;;;5012243;28;20061;-60
2023/01/13 13:05:21;;;;;;;2.28;0.43;;;9.70;70.70;;;;;;5011067;28;20081;-62
2023/01/13 13:08:11;;;;;;;0.93;0.20;;;9.30;72.80;;;;;;5013997;28;20782;-61
2023/01/13 13:10:43;;;;;;;0.65;0.30;;;8.90;73.90;;;;;;5009864;28;20573;-62
2023/01/13 13:13:45;;;;;;;1.33;0.20;;;8.60;75.40;;;;;;5010642;28;20045;-62
2023/01/13 13:16:26;;;;;;;0.55;0.20;;;8.30;77.50;;;;;;5010863;28;20042;-61
2023/01/13 13:19:16;;;;;;;2.45;0.30;;;8.10;77.90;;;;;;5012299;28;20504;-61
2023/01/13 13:22:15;;;;;;;0.32;0.20;;;8.00;78.20;;;;;;5010922;28;20533;-61
2023/01/13 13:24:50;;;;;;;2.35;0.40;;;7.90;78.60;;;;;;5012554;28;20058;-60
2023/01/13 13:27:16;;;;;;;1.23;0.45;;;7.80;78.70;;;;;;5010432;28;20121;-61
2023/01/13 13:30:11;;;;;;;1.67;0.30;;;7.80;79.00;;;;;;5011475;28;20041;-60
2023/01/13 13:32:58;;;;;;;1.58;0.30;;;7.70;79.00;;;;;;5008036;28;20092;-61
2023/01/13 13:35:38;;;;;;;1.55;0.60;;;7.70;79.80;;;;;;5010650;28;20037;-62
2023/01/13 13:46:48;;;;;;;1.35;0.60;;;7.90;79.40;;;;;;5010627;28;20052;-62
2023/01/13 13:49:18;;;;;;;0.55;0.40;;;7.90;79.60;;;;;;5012650;28;20042;-61
2023/01/13 13:51:53;;;;;;;1.67;0.70;;;8.00;79.50;;;;;;5011429;28;20040;-61
2023/01/13 13:54:21;;;;;;;1.45;0.30;;;8.10;79.20;;;;;;5012013;28;20042;-61
2023/01/13 13:56:49;;;;;;;0.90;0.50;;;8.10;79.10;;;;;;5011801;28;20045;-59
2023/01/13 13:59:22;;;;;;;0.90;0.20;;;8.20;78.90;;;;;;5015437;28;20049;-59
2023/01/13 14:02:02;;;;;;;0.70;0.20;;;8.30;79.10;;;;;;5014323;28;20490;-60
2023/01/13 14:04:35;;;;;;;0.70;0.20;;;8.40;78.70;;;;;;5014608;28;20049;-59